sensor_id;sensor_type;location;lat;lon;timestamp;P1;durP1;ratioP1;P2;durP2;ratioP2
20699;SDS011;10511;51.232;9.420;2023-03-01T00:00:12;1.80;;;1.80;;
20699;SDS011;10511;51.232;9.420;2023-03-01T00:02:40;1.70;;;1.70;;
20699;SDS011;10511;51.232;9.420;2023-03-01T00:05:07;1.80;;;1.80;;
20699;SDS011;10511;51.232;9.420;2023-03-01T00:07:34;1.70;;;1.70;;
20699;SDS011;10511;51.232;9.420;2023-03-01T00:10:02;1.80;;;1.80;;
20699;SDS011;10511;51.232;9.420;2023-03-01T00:12:30;1.80;;;1.80;;
20699;SDS011;10511;51.232;9.420;2023-03-01T00:14:57;1.80;;;1.80;;
20699;SDS011;10511;51.232;9.420;2023-03-01T00:17:24;1.70;;;1.70;;
20699;SDS011;10511;51.232;9.420;2023-03-01T00:19:51;1.73;;;1.73;;
20699;SDS011;10511;51.232;9.420;2023-03-01T00:22:18;1.70;;;1.70;;
20699;SDS011;10511;51.232;9.420;2023-03-01T00:24:45;1.70;;;1.70;;
20699;SDS011;10511;51.232;9.420;2023-03-01T00:27:13;1.70;;;1.70;;
20699;SDS011;10511;51.232;9.420;2023-03-01T00:29:40;1.80;;;1.80;;
20699;SDS011;10511;51.232;9.420;2023-03-01T00:32:07;1.70;;;1.70;;
20699;SDS011;10511;51.232;9.420;2023-03-01T00:34:33;1.80;;;1.80;;
20699;SDS011;10511;51.232;9.420;2023-03-01T00:37:00;1.80;;;1.80;;
20699;SDS011;10511;51.232;9.420;2023-03-01T00:39:30;1.80;;;1.80;;
20699;SDS011;10511;51.232;9.420;2023-03-01T00:41:57;1.80;;;1.80;;
20699;SDS011;10511;51.232;9.420;2023-03-01T00:44:25;1.80;;;1.80;;
20699;SDS011;10511;51.232;9.420;2023-03-01T00:46:53;1.70;;;1.70;;
20699;SDS011;10511;51.232;9.420;2023-03-01T00:49:20;1.80;;;1.80;;
20699;SDS011;10511;51.232;9.420;2023-03-01T00:51:49;1.70;;;1.70;;
20699;SDS011;10511;51.232;9.420;2023-03-01T00:54:16;1.70;;;1.70;;
20699;SDS011;10511;51.232;9.420;2023-03-01T00:56:42;1.73;;;1.73;;
20699;SDS011;10511;51.232;9.420;2023-03-01T00:59:09;1.83;;;1.83;;
20699;SDS011;10511;51.232;9.420;2023-03-01T01:01:37;1.70;;;1.70;;
20699;SDS011;10511;51.232;9.420;2023-03-01T01:04:05;1.80;;;1.80;;
20699;SDS011;10511;51.232;9.420;2023-03-01T01:06:34;1.73;;;1.73;;
20699;SDS011;10511;51.232;9.420;2023-03-01T01:09:03;1.70;;;1.70;;
20699;SDS011;10511;51.232;9.420;2023-03-01T01:11:31;1.77;;;1.77;;
20699;SDS011;10511;51.232;9.420;2023-03-01T01:13:59;2.00;;;2.00;;
20699;SDS011;10511;51.232;9.420;2023-03-01T01:16:27;1.83;;;1.83;;
20699;SDS011;10511;51.232;9.420;2023-03-01T01:18:56;1.90;;;1.90;;
20699;SDS011;10511;51.232;9.420;2023-03-01T01:21:23;1.80;;;1.80;;
20699;SDS011;10511;51.232;9.420;2023-03-01T01:23:52;1.90;;;1.90;;
20699;SDS011;10511;51.232;9.420;2023-03-01T01:26:20;1.90;;;1.90;;
20699;SDS011;10511;51.232;9.420;2023-03-01T01:28:48;1.90;;;1.90;;
20699;SDS011;10511;51.232;9.420;2023-03-01T01:31:15;1.90;;;1.90;;
20699;SDS011;10511;51.232;9.420;2023-03-01T01:33:42;2.00;;;2.00;;
20699;SDS011;10511;51.232;9.420;2023-03-01T01:36:10;1.90;;;1.90;;
20699;SDS011;10511;51.232;9.420;2023-03-01T01:38:38;1.80;;;1.80;;
20699;SDS011;10511;51.232;9.420;2023-03-01T01:41:07;1.80;;;1.80;;
20699;SDS011;10511;51.232;9.420;2023-03-01T01:43:37;1.73;;;1.73;;
20699;SDS011;10511;51.232;9.420;2023-03-01T01:46:06;1.90;;;1.90;;
20699;SDS011;10511;51.232;9.420;2023-03-01T01:48:43;1.83;;;1.83;;
20699;SDS011;10511;51.232;9.420;2023-03-01T01:51:16;1.90;;;1.90;;
20699;SDS011;10511;51.232;9.420;2023-03-01T01:53:49;2.00;;;2.00;;
20699;SDS011;10511;51.232;9.420;2023-03-01T01:56:20;1.90;;;1.90;;
20699;SDS011;10511;51.232;9.420;2023-03-01T01:58:50;1.93;;;1.93;;
20699;SDS011;10511;51.232;9.420;2023-03-01T02:01:17;1.90;;;1.90;;
20699;SDS011;10511;51.232;9.420;2023-03-01T02:03:44;1.90;;;1.90;;
20699;SDS011;10511;51.232;9.420;2023-03-01T02:06:18;2.00;;;2.00;;
20699;SDS011;10511;51.232;9.420;2023-03-01T02:08:48;1.90;;;1.90;;
20699;SDS011;10511;51.232;9.420;2023-03-01T02:11:18;1.93;;;1.93;;
20699;SDS011;10511;51.232;9.420;2023-03-01T02:13:47;2.10;;;2.10;;
20699;SDS011;10511;51.232;9.420;2023-03-01T02:16:15;2.07;;;2.07;;
20699;SDS011;10511;51.232;9.420;2023-03-01T02:18:43;1.93;;;1.93;;
20699;SDS011;10511;51.232;9.420;2023-03-01T02:21:14;1.93;;;1.93;;
20699;SDS011;10511;51.232;9.420;2023-03-01T02:23:52;1.90;;;1.90;;
20699;SDS011;10511;51.232;9.420;2023-03-01T02:26:23;1.90;;;1.90;;
20699;SDS011;10511;51.232;9.420;2023-03-01T02:28:57;1.90;;;1.90;;
20699;SDS011;10511;51.232;9.420;2023-03-01T02:31:24;1.80;;;1.80;;
20699;SDS011;10511;51.232;9.420;2023-03-01T02:34:11;1.90;;;1.90;;
20699;SDS011;10511;51.232;9.420;2023-03-01T02:36:40;1.90;;;1.90;;
20699;SDS011;10511;51.232;9.420;2023-03-01T02:39:14;2.00;;;2.00;;
20699;SDS011;10511;51.232;9.420;2023-03-01T02:41:44;1.90;;;1.90;;
20699;SDS011;10511;51.232;9.420;2023-03-01T02:44:15;2.00;;;2.00;;
20699;SDS011;10511;51.232;9.420;2023-03-01T02:46:42;1.90;;;1.90;;
20699;SDS011;10511;51.232;9.420;2023-03-01T02:49:18;1.90;;;1.90;;
20699;SDS011;10511;51.232;9.420;2023-03-01T02:51:50;1.90;;;1.90;;
20699;SDS011;10511;51.232;9.420;2023-03-01T02:54:36;2.07;;;2.07;;
20699;SDS011;10511;51.232;9.420;2023-03-01T02:57:08;1.90;;;1.90;;
20699;SDS011;10511;51.232;9.420;2023-03-01T02:59:36;1.80;;;1.80;;
20699;SDS011;10511;51.232;9.420;2023-03-01T03:02:05;2.00;;;2.00;;
20699;SDS011;10511;51.232;9.420;2023-03-01T03:04:32;1.87;;;1.87;;
20699;SDS011;10511;51.232;9.420;2023-03-01T03:07:00;1.90;;;1.90;;
20699;SDS011;10511;51.232;9.420;2023-03-01T03:09:26;1.90;;;1.90;;
20699;SDS011;10511;51.232;9.420;2023-03-01T03:11:54;2.00;;;2.00;;
20699;SDS011;10511;51.232;9.420;2023-03-01T03:14:20;1.90;;;1.90;;
20699;SDS011;10511;51.232;9.420;2023-03-01T03:16:50;2.03;;;2.03;;
20699;SDS011;10511;51.232;9.420;2023-03-01T03:19:16;2.00;;;2.00;;
20699;SDS011;10511;51.232;9.420;2023-03-01T03:21:44;1.90;;;1.90;;
20699;SDS011;10511;51.232;9.420;2023-03-01T03:24:11;2.00;;;2.00;;
20699;SDS011;10511;51.232;9.420;2023-03-01T03:26:38;1.90;;;1.90;;
20699;SDS011;10511;51.232;9.420;2023-03-01T03:29:05;1.90;;;1.90;;
20699;SDS011;10511;51.232;9.420;2023-03-01T03:31:32;1.90;;;1.90;;
20699;SDS011;10511;51.232;9.420;2023-03-01T03:34:01;2.00;;;2.00;;
20699;SDS011;10511;51.232;9.420;2023-03-01T03:36:28;1.90;;;1.90;;
20699;SDS011;10511;51.232;9.420;2023-03-01T03:38:55;1.90;;;1.90;;
20699;SDS011;10511;51.232;9.420;2023-03-01T03:41:22;1.90;;;1.90;;
20699;SDS011;10511;51.232;9.420;2023-03-01T03:43:49;1.90;;;1.90;;
20699;SDS011;10511;51.232;9.420;2023-03-01T03:46:16;1.90;;;1.90;;
20699;SDS011;10511;51.232;9.420;2023-03-01T03:48:43;1.90;;;1.90;;
20699;SDS011;10511;51.232;9.420;2023-03-01T03:51:13;1.90;;;1.90;;
20699;SDS011;10511;51.232;9.420;2023-03-01T03:53:42;1.87;;;1.87;;
20699;SDS011;10511;51.232;9.420;2023-03-01T03:56:09;1.90;;;1.90;;
20699;SDS011;10511;51.232;9.420;2023-03-01T03:58:37;2.00;;;2.00;;
20699;SDS011;10511;51.232;9.420;2023-03-01T04:01:04;2.10;;;2.10;;
20699;SDS011;10511;51.232;9.420;2023-03-01T04:03:31;1.90;;;1.90;;
20699;SDS011;10511;51.232;9.420;2023-03-01T04:06:00;1.90;;;1.90;;
20699;SDS011;10511;51.232;9.420;2023-03-01T04:08:30;2.00;;;2.00;;
20699;SDS011;10511;51.232;9.420;2023-03-01T04:10:58;2.00;;;2.00;;
20699;SDS011;10511;51.232;9.420;2023-03-01T04:13:46;1.90;;;1.90;;
20699;SDS011;10511;51.232;9.420;2023-03-01T04:16:13;2.00;;;2.00;;
20699;SDS011;10511;51.232;9.420;2023-03-01T04:18:40;1.93;;;1.93;;
20699;SDS011;10511;51.232;9.420;2023-03-01T04:21:07;2.00;;;2.00;;
20699;SDS011;10511;51.232;9.420;2023-03-01T04:23:35;2.00;;;2.00;;
20699;SDS011;10511;51.232;9.420;2023-03-01T04:26:02;1.80;;;1.80;;
20699;SDS011;10511;51.232;9.420;2023-03-01T04:28:32;2.00;;;2.00;;
20699;SDS011;10511;51.232;9.420;2023-03-01T04:31:02;2.20;;;2.20;;
20699;SDS011;10511;51.232;9.420;2023-03-01T04:33:37;2.17;;;2.17;;
20699;SDS011;10511;51.232;9.420;2023-03-01T04:36:05;2.00;;;2.00;;
20699;SDS011;10511;51.232;9.420;2023-03-01T04:38:33;2.00;;;2.00;;
20699;SDS011;10511;51.232;9.420;2023-03-01T04:41:03;2.10;;;2.10;;
20699;SDS011;10511;51.232;9.420;2023-03-01T04:43:30;2.10;;;2.10;;
20699;SDS011;10511;51.232;9.420;2023-03-01T04:46:02;2.00;;;2.00;;
20699;SDS011;10511;51.232;9.420;2023-03-01T04:48:31;1.90;;;1.90;;
20699;SDS011;10511;51.232;9.420;2023-03-01T04:50:58;2.10;;;2.10;;
20699;SDS011;10511;51.232;9.420;2023-03-01T04:53:26;1.90;;;1.90;;
20699;SDS011;10511;51.232;9.420;2023-03-01T04:55:55;2.07;;;2.07;;
20699;SDS011;10511;51.232;9.420;2023-03-01T04:58:22;2.00;;;2.00;;
20699;SDS011;10511;51.232;9.420;2023-03-01T05:00:49;2.00;;;2.00;;
20699;SDS011;10511;51.232;9.420;2023-03-01T05:03:17;2.07;;;2.07;;
20699;SDS011;10511;51.232;9.420;2023-03-01T05:05:44;1.90;;;1.90;;
20699;SDS011;10511;51.232;9.420;2023-03-01T05:08:13;1.90;;;1.90;;
20699;SDS011;10511;51.232;9.420;2023-03-01T05:10:43;2.00;;;2.00;;
20699;SDS011;10511;51.232;9.420;2023-03-01T05:13:13;2.10;;;2.10;;
20699;SDS011;10511;51.232;9.420;2023-03-01T05:15:46;2.00;;;2.00;;
20699;SDS011;10511;51.232;9.420;2023-03-01T05:18:14;2.10;;;2.10;;
20699;SDS011;10511;51.232;9.420;2023-03-01T05:20:41;2.10;;;2.10;;
20699;SDS011;10511;51.232;9.420;2023-03-01T05:23:09;1.90;;;1.90;;
20699;SDS011;10511;51.232;9.420;2023-03-01T05:25:36;2.00;;;2.00;;
20699;SDS011;10511;51.232;9.420;2023-03-01T05:28:05;2.00;;;2.00;;
20699;SDS011;10511;51.232;9.420;2023-03-01T05:30:34;2.00;;;2.00;;
20699;SDS011;10511;51.232;9.420;2023-03-01T05:33:01;2.17;;;2.17;;
20699;SDS011;10511;51.232;9.420;2023-03-01T05:35:28;2.00;;;2.00;;
20699;SDS011;10511;51.232;9.420;2023-03-01T05:37:57;2.03;;;2.03;;
20699;SDS011;10511;51.232;9.420;2023-03-01T05:40:24;2.00;;;2.00;;
20699;SDS011;10511;51.232;9.420;2023-03-01T05:42:52;2.10;;;2.10;;
20699;SDS011;10511;51.232;9.420;2023-03-01T05:45:20;2.10;;;2.10;;
20699;SDS011;10511;51.232;9.420;2023-03-01T05:47:49;2.10;;;2.10;;
20699;SDS011;10511;51.232;9.420;2023-03-01T05:50:18;2.00;;;2.00;;
20699;SDS011;10511;51.232;9.420;2023-03-01T05:52:47;2.00;;;2.00;;
20699;SDS011;10511;51.232;9.420;2023-03-01T05:55:15;2.00;;;2.00;;
20699;SDS011;10511;51.232;9.420;2023-03-01T05:57:42;2.03;;;2.03;;
20699;SDS011;10511;51.232;9.420;2023-03-01T06:00:13;1.90;;;1.90;;
20699;SDS011;10511;51.232;9.420;2023-03-01T06:02:54;2.10;;;2.10;;
20699;SDS011;10511;51.232;9.420;2023-03-01T06:05:22;2.00;;;2.00;;
20699;SDS011;10511;51.232;9.420;2023-03-01T06:07:49;2.10;;;2.10;;
20699;SDS011;10511;51.232;9.420;2023-03-01T06:10:18;2.10;;;2.10;;
20699;SDS011;10511;51.232;9.420;2023-03-01T06:12:46;2.00;;;2.00;;
20699;SDS011;10511;51.232;9.420;2023-03-01T06:15:15;2.00;;;2.00;;
20699;SDS011;10511;51.232;9.420;2023-03-01T06:17:42;1.90;;;1.90;;
20699;SDS011;10511;51.232;9.420;2023-03-01T06:20:13;2.00;;;2.00;;
20699;SDS011;10511;51.232;9.420;2023-03-01T06:22:42;2.10;;;2.10;;
20699;SDS011;10511;51.232;9.420;2023-03-01T06:25:11;2.13;;;2.13;;
20699;SDS011;10511;51.232;9.420;2023-03-01T06:27:39;2.00;;;2.00;;
20699;SDS011;10511;51.232;9.420;2023-03-01T06:30:06;1.90;;;1.90;;
20699;SDS011;10511;51.232;9.420;2023-03-01T06:32:35;2.00;;;2.00;;
20699;SDS011;10511;51.232;9.420;2023-03-01T06:35:02;1.90;;;1.90;;
20699;SDS011;10511;51.232;9.420;2023-03-01T06:37:31;2.10;;;2.10;;
20699;SDS011;10511;51.232;9.420;2023-03-01T06:40:00;2.00;;;2.00;;
20699;SDS011;10511;51.232;9.420;2023-03-01T06:42:33;1.90;;;1.90;;
20699;SDS011;10511;51.232;9.420;2023-03-01T06:45:00;2.07;;;2.07;;
20699;SDS011;10511;51.232;9.420;2023-03-01T06:47:27;2.10;;;2.10;;
20699;SDS011;10511;51.232;9.420;2023-03-01T06:49:53;2.10;;;2.10;;
20699;SDS011;10511;51.232;9.420;2023-03-01T06:52:20;1.90;;;1.90;;
20699;SDS011;10511;51.232;9.420;2023-03-01T06:54:48;2.00;;;2.00;;
20699;SDS011;10511;51.232;9.420;2023-03-01T06:57:15;2.10;;;2.10;;
20699;SDS011;10511;51.232;9.420;2023-03-01T06:59:42;1.93;;;1.93;;
20699;SDS011;10511;51.232;9.420;2023-03-01T07:02:10;2.20;;;2.20;;
20699;SDS011;10511;51.232;9.420;2023-03-01T07:04:37;2.00;;;2.00;;
20699;SDS011;10511;51.232;9.420;2023-03-01T07:07:04;2.00;;;2.00;;
20699;SDS011;10511;51.232;9.420;2023-03-01T07:09:31;2.13;;;2.13;;
20699;SDS011;10511;51.232;9.420;2023-03-01T07:11:59;2.00;;;2.00;;
20699;SDS011;10511;51.232;9.420;2023-03-01T07:14:26;2.00;;;2.00;;
20699;SDS011;10511;51.232;9.420;2023-03-01T07:16:53;2.00;;;2.00;;
20699;SDS011;10511;51.232;9.420;2023-03-01T07:19:21;1.97;;;1.97;;
20699;SDS011;10511;51.232;9.420;2023-03-01T07:21:48;1.90;;;1.90;;
20699;SDS011;10511;51.232;9.420;2023-03-01T07:24:15;2.00;;;2.00;;
20699;SDS011;10511;51.232;9.420;2023-03-01T07:26:41;1.90;;;1.90;;
20699;SDS011;10511;51.232;9.420;2023-03-01T07:29:10;2.00;;;2.00;;
20699;SDS011;10511;51.232;9.420;2023-03-01T07:31:37;1.90;;;1.90;;
20699;SDS011;10511;51.232;9.420;2023-03-01T07:34:04;1.90;;;1.90;;
20699;SDS011;10511;51.232;9.420;2023-03-01T07:36:31;1.90;;;1.90;;
20699;SDS011;10511;51.232;9.420;2023-03-01T07:38:57;1.83;;;1.83;;
20699;SDS011;10511;51.232;9.420;2023-03-01T07:41:27;1.90;;;1.90;;
20699;SDS011;10511;51.232;9.420;2023-03-01T07:43:54;1.90;;;1.90;;
20699;SDS011;10511;51.232;9.420;2023-03-01T07:46:22;1.90;;;1.90;;
20699;SDS011;10511;51.232;9.420;2023-03-01T07:48:49;1.83;;;1.83;;
20699;SDS011;10511;51.232;9.420;2023-03-01T07:51:16;1.90;;;1.90;;
20699;SDS011;10511;51.232;9.420;2023-03-01T07:53:45;1.90;;;1.90;;
20699;SDS011;10511;51.232;9.420;2023-03-01T07:56:12;1.90;;;1.90;;
20699;SDS011;10511;51.232;9.420;2023-03-01T07:58:42;1.90;;;1.90;;
20699;SDS011;10511;51.232;9.420;2023-03-01T08:01:11;1.90;;;1.90;;
20699;SDS011;10511;51.232;9.420;2023-03-01T08:03:41;1.80;;;1.80;;
20699;SDS011;10511;51.232;9.420;2023-03-01T08:06:09;1.90;;;1.90;;
20699;SDS011;10511;51.232;9.420;2023-03-01T08:08:37;1.80;;;1.80;;
20699;SDS011;10511;51.232;9.420;2023-03-01T08:11:04;1.70;;;1.70;;
20699;SDS011;10511;51.232;9.420;2023-03-01T08:13:33;1.80;;;1.80;;
20699;SDS011;10511;51.232;9.420;2023-03-01T08:16:00;1.80;;;1.80;;
20699;SDS011;10511;51.232;9.420;2023-03-01T08:18:28;1.77;;;1.77;;
20699;SDS011;10511;51.232;9.420;2023-03-01T08:20:56;1.70;;;1.70;;
20699;SDS011;10511;51.232;9.420;2023-03-01T08:23:27;1.70;;;1.70;;
20699;SDS011;10511;51.232;9.420;2023-03-01T08:25:55;1.70;;;1.70;;
20699;SDS011;10511;51.232;9.420;2023-03-01T08:28:28;1.70;;;1.70;;
20699;SDS011;10511;51.232;9.420;2023-03-01T08:30:55;1.70;;;1.70;;
20699;SDS011;10511;51.232;9.420;2023-03-01T08:33:22;1.60;;;1.60;;
20699;SDS011;10511;51.232;9.420;2023-03-01T08:35:50;1.60;;;1.60;;
20699;SDS011;10511;51.232;9.420;2023-03-01T08:38:18;1.70;;;1.70;;
20699;SDS011;10511;51.232;9.420;2023-03-01T08:40:45;1.80;;;1.80;;
20699;SDS011;10511;51.232;9.420;2023-03-01T08:43:11;1.60;;;1.60;;
20699;SDS011;10511;51.232;9.420;2023-03-01T08:45:38;1.60;;;1.60;;
20699;SDS011;10511;51.232;9.420;2023-03-01T08:48:05;1.60;;;1.60;;
20699;SDS011;10511;51.232;9.420;2023-03-01T08:50:32;1.50;;;1.50;;
20699;SDS011;10511;51.232;9.420;2023-03-01T08:52:59;1.50;;;1.50;;
20699;SDS011;10511;51.232;9.420;2023-03-01T08:55:27;1.60;;;1.60;;
20699;SDS011;10511;51.232;9.420;2023-03-01T08:57:55;1.67;;;1.67;;
20699;SDS011;10511;51.232;9.420;2023-03-01T09:00:24;1.60;;;1.60;;
20699;SDS011;10511;51.232;9.420;2023-03-01T09:02:51;1.50;;;1.50;;
20699;SDS011;10511;51.232;9.420;2023-03-01T09:05:17;1.50;;;1.50;;
20699;SDS011;10511;51.232;9.420;2023-03-01T09:07:44;1.60;;;1.60;;
20699;SDS011;10511;51.232;9.420;2023-03-01T09:10:11;1.60;;;1.60;;
20699;SDS011;10511;51.232;9.420;2023-03-01T09:12:39;1.50;;;1.50;;
20699;SDS011;10511;51.232;9.420;2023-03-01T09:15:07;1.50;;;1.50;;
20699;SDS011;10511;51.232;9.420;2023-03-01T09:17:34;1.70;;;1.70;;
20699;SDS011;10511;51.232;9.420;2023-03-01T09:20:01;1.67;;;1.67;;
20699;SDS011;10511;51.232;9.420;2023-03-01T09:22:30;1.60;;;1.60;;
20699;SDS011;10511;51.232;9.420;2023-03-01T09:24:58;1.50;;;1.50;;
20699;SDS011;10511;51.232;9.420;2023-03-01T09:27:26;1.60;;;1.60;;
20699;SDS011;10511;51.232;9.420;2023-03-01T09:29:54;1.50;;;1.50;;
20699;SDS011;10511;51.232;9.420;2023-03-01T09:32:22;1.50;;;1.50;;
20699;SDS011;10511;51.232;9.420;2023-03-01T09:34:49;1.30;;;1.30;;
20699;SDS011;10511;51.232;9.420;2023-03-01T09:37:32;1.50;;;1.50;;
20699;SDS011;10511;51.232;9.420;2023-03-01T09:40:01;1.30;;;1.30;;
20699;SDS011;10511;51.232;9.420;2023-03-01T09:42:29;1.50;;;1.50;;
20699;SDS011;10511;51.232;9.420;2023-03-01T09:45:01;1.40;;;1.40;;
20699;SDS011;10511;51.232;9.420;2023-03-01T09:47:31;1.40;;;1.40;;
20699;SDS011;10511;51.232;9.420;2023-03-01T09:50:02;1.43;;;1.43;;
20699;SDS011;10511;51.232;9.420;2023-03-01T09:52:34;1.30;;;1.30;;
20699;SDS011;10511;51.232;9.420;2023-03-01T09:55:08;1.40;;;1.40;;
20699;SDS011;10511;51.232;9.420;2023-03-01T09:57:38;1.50;;;1.50;;
20699;SDS011;10511;51.232;9.420;2023-03-01T10:00:15;1.50;;;1.50;;
20699;SDS011;10511;51.232;9.420;2023-03-01T10:02:54;1.40;;;1.40;;
20699;SDS011;10511;51.232;9.420;2023-03-01T10:05:30;1.30;;;1.30;;
20699;SDS011;10511;51.232;9.420;2023-03-01T10:08:06;1.30;;;1.30;;
20699;SDS011;10511;51.232;9.420;2023-03-01T10:10:50;1.30;;;1.30;;
20699;SDS011;10511;51.232;9.420;2023-03-01T10:13:19;1.40;;;1.40;;
20699;SDS011;10511;51.232;9.420;2023-03-01T10:15:52;1.30;;;1.30;;
20699;SDS011;10511;51.232;9.420;2023-03-01T10:18:23;1.43;;;1.43;;
20699;SDS011;10511;51.232;9.420;2023-03-01T10:20:53;1.40;;;1.40;;
20699;SDS011;10511;51.232;9.420;2023-03-01T10:23:22;1.40;;;1.40;;
20699;SDS011;10511;51.232;9.420;2023-03-01T10:25:56;1.30;;;1.30;;
20699;SDS011;10511;51.232;9.420;2023-03-01T10:28:35;1.30;;;1.30;;
20699;SDS011;10511;51.232;9.420;2023-03-01T10:31:13;1.23;;;1.23;;
20699;SDS011;10511;51.232;9.420;2023-03-01T10:33:43;1.30;;;1.30;;
20699;SDS011;10511;51.232;9.420;2023-03-01T10:36:10;1.30;;;1.30;;
20699;SDS011;10511;51.232;9.420;2023-03-01T10:38:47;1.30;;;1.30;;
20699;SDS011;10511;51.232;9.420;2023-03-01T10:41:17;1.33;;;1.33;;
20699;SDS011;10511;51.232;9.420;2023-03-01T10:43:45;1.30;;;1.30;;
20699;SDS011;10511;51.232;9.420;2023-03-01T10:46:25;1.30;;;1.30;;
20699;SDS011;10511;51.232;9.420;2023-03-01T10:49:05;1.20;;;1.20;;
20699;SDS011;10511;51.232;9.420;2023-03-01T10:51:33;1.20;;;1.20;;
20699;SDS011;10511;51.232;9.420;2023-03-01T10:54:00;1.27;;;1.27;;
20699;SDS011;10511;51.232;9.420;2023-03-01T10:56:28;1.27;;;1.27;;
20699;SDS011;10511;51.232;9.420;2023-03-01T10:59:19;1.30;;;1.30;;
20699;SDS011;10511;51.232;9.420;2023-03-01T11:02:14;1.30;;;1.30;;
20699;SDS011;10511;51.232;9.420;2023-03-01T11:04:57;1.20;;;1.20;;
20699;SDS011;10511;51.232;9.420;2023-03-01T11:07:25;1.20;;;1.20;;
20699;SDS011;10511;51.232;9.420;2023-03-01T11:09:52;1.20;;;1.20;;
20699;SDS011;10511;51.232;9.420;2023-03-01T11:12:20;1.20;;;1.20;;
20699;SDS011;10511;51.232;9.420;2023-03-01T11:14:48;1.20;;;1.20;;
20699;SDS011;10511;51.232;9.420;2023-03-01T11:17:18;1.10;;;1.10;;
20699;SDS011;10511;51.232;9.420;2023-03-01T11:19:59;1.20;;;1.20;;
20699;SDS011;10511;51.232;9.420;2023-03-01T11:22:28;1.20;;;1.20;;
20699;SDS011;10511;51.232;9.420;2023-03-01T11:24:59;1.20;;;1.20;;
20699;SDS011;10511;51.232;9.420;2023-03-01T11:27:27;1.10;;;1.10;;
20699;SDS011;10511;51.232;9.420;2023-03-01T11:29:57;1.20;;;1.20;;
20699;SDS011;10511;51.232;9.420;2023-03-01T11:32:29;1.20;;;1.20;;
20699;SDS011;10511;51.232;9.420;2023-03-01T11:35:03;1.20;;;1.20;;
20699;SDS011;10511;51.232;9.420;2023-03-01T11:37:38;1.20;;;1.20;;
20699;SDS011;10511;51.232;9.420;2023-03-01T11:40:11;1.30;;;1.30;;
20699;SDS011;10511;51.232;9.420;2023-03-01T11:43:01;1.10;;;1.10;;
20699;SDS011;10511;51.232;9.420;2023-03-01T11:45:37;1.20;;;1.20;;
20699;SDS011;10511;51.232;9.420;2023-03-01T11:48:17;1.20;;;1.20;;
20699;SDS011;10511;51.232;9.420;2023-03-01T11:50:57;1.20;;;1.20;;
20699;SDS011;10511;51.232;9.420;2023-03-01T11:53:35;1.10;;;1.10;;
20699;SDS011;10511;51.232;9.420;2023-03-01T11:56:16;1.20;;;1.20;;
20699;SDS011;10511;51.232;9.420;2023-03-01T11:58:54;1.20;;;1.20;;
20699;SDS011;10511;51.232;9.420;2023-03-01T12:01:39;1.10;;;1.10;;
20699;SDS011;10511;51.232;9.420;2023-03-01T12:04:23;1.17;;;1.17;;
20699;SDS011;10511;51.232;9.420;2023-03-01T12:07:16;1.10;;;1.10;;
20699;SDS011;10511;51.232;9.420;2023-03-01T12:09:52;1.20;;;1.20;;
20699;SDS011;10511;51.232;9.420;2023-03-01T12:12:38;1.10;;;1.10;;
20699;SDS011;10511;51.232;9.420;2023-03-01T12:18:25;1.10;;;1.10;;
20699;SDS011;10511;51.232;9.420;2023-03-01T12:21:14;1.10;;;1.10;;
20699;SDS011;10511;51.232;9.420;2023-03-01T12:26:56;1.10;;;1.10;;
20699;SDS011;10511;51.232;9.420;2023-03-01T12:29:36;1.10;;;1.10;;
20699;SDS011;10511;51.232;9.420;2023-03-01T12:34:55;1.00;;;1.00;;
20699;SDS011;10511;51.232;9.420;2023-03-01T12:37:41;1.10;;;1.10;;
20699;SDS011;10511;51.232;9.420;2023-03-01T12:40:29;1.00;;;1.00;;
20699;SDS011;10511;51.232;9.420;2023-03-01T12:43:15;1.10;;;1.10;;
20699;SDS011;10511;51.232;9.420;2023-03-01T12:45:50;1.10;;;1.10;;
20699;SDS011;10511;51.232;9.420;2023-03-01T12:48:37;1.10;;;1.10;;
20699;SDS011;10511;51.232;9.420;2023-03-01T12:51:10;1.10;;;1.10;;
20699;SDS011;10511;51.232;9.420;2023-03-01T12:53:42;1.20;;;1.20;;
20699;SDS011;10511;51.232;9.420;2023-03-01T12:56:13;1.10;;;1.10;;
20699;SDS011;10511;51.232;9.420;2023-03-01T12:58:46;1.20;;;1.20;;
20699;SDS011;10511;51.232;9.420;2023-03-01T13:01:22;1.17;;;1.17;;
20699;SDS011;10511;51.232;9.420;2023-03-01T13:04:01;1.13;;;1.13;;
20699;SDS011;10511;51.232;9.420;2023-03-01T13:06:40;1.00;;;1.00;;
20699;SDS011;10511;51.232;9.420;2023-03-01T13:09:17;1.10;;;1.10;;
20699;SDS011;10511;51.232;9.420;2023-03-01T13:11:51;1.03;;;1.03;;
20699;SDS011;10511;51.232;9.420;2023-03-01T13:20:15;1.20;;;1.20;;
20699;SDS011;10511;51.232;9.420;2023-03-01T13:22:44;1.17;;;1.17;;
20699;SDS011;10511;51.232;9.420;2023-03-01T13:25:14;1.10;;;1.10;;
20699;SDS011;10511;51.232;9.420;2023-03-01T13:27:43;1.20;;;1.20;;
20699;SDS011;10511;51.232;9.420;2023-03-01T13:36:13;1.10;;;1.10;;
20699;SDS011;10511;51.232;9.420;2023-03-01T13:39:26;1.20;;;1.20;;
20699;SDS011;10511;51.232;9.420;2023-03-01T13:41:58;1.20;;;1.20;;
20699;SDS011;10511;51.232;9.420;2023-03-01T13:44:30;1.17;;;1.17;;
20699;SDS011;10511;51.232;9.420;2023-03-01T13:47:03;1.10;;;1.10;;
20699;SDS011;10511;51.232;9.420;2023-03-01T13:49:43;1.10;;;1.10;;
20699;SDS011;10511;51.232;9.420;2023-03-01T13:52:22;1.20;;;1.20;;
20699;SDS011;10511;51.232;9.420;2023-03-01T13:54:58;1.20;;;1.20;;
20699;SDS011;10511;51.232;9.420;2023-03-01T13:57:28;1.20;;;1.20;;
20699;SDS011;10511;51.232;9.420;2023-03-01T13:59:59;1.10;;;1.10;;
20699;SDS011;10511;51.232;9.420;2023-03-01T14:02:26;1.10;;;1.10;;
20699;SDS011;10511;51.232;9.420;2023-03-01T14:04:56;1.10;;;1.10;;
20699;SDS011;10511;51.232;9.420;2023-03-01T14:07:24;1.10;;;1.10;;
20699;SDS011;10511;51.232;9.420;2023-03-01T14:09:54;1.10;;;1.10;;
20699;SDS011;10511;51.232;9.420;2023-03-01T14:12:25;1.10;;;1.10;;
20699;SDS011;10511;51.232;9.420;2023-03-01T14:15:06;1.10;;;1.10;;
20699;SDS011;10511;51.232;9.420;2023-03-01T14:17:43;1.20;;;1.20;;
20699;SDS011;10511;51.232;9.420;2023-03-01T14:20:18;1.10;;;1.10;;
20699;SDS011;10511;51.232;9.420;2023-03-01T14:22:47;1.10;;;1.10;;
20699;SDS011;10511;51.232;9.420;2023-03-01T14:25:20;1.13;;;1.13;;
20699;SDS011;10511;51.232;9.420;2023-03-01T14:27:58;1.17;;;1.17;;
20699;SDS011;10511;51.232;9.420;2023-03-01T14:30:30;1.20;;;1.20;;
20699;SDS011;10511;51.232;9.420;2023-03-01T14:33:00;1.20;;;1.20;;
20699;SDS011;10511;51.232;9.420;2023-03-01T14:35:29;1.20;;;1.20;;
20699;SDS011;10511;51.232;9.420;2023-03-01T14:37:57;1.20;;;1.20;;
20699;SDS011;10511;51.232;9.420;2023-03-01T14:40:25;1.10;;;1.10;;
20699;SDS011;10511;51.232;9.420;2023-03-01T14:42:53;1.10;;;1.10;;
20699;SDS011;10511;51.232;9.420;2023-03-01T14:45:24;1.20;;;1.20;;
20699;SDS011;10511;51.232;9.420;2023-03-01T14:47:53;1.10;;;1.10;;
20699;SDS011;10511;51.232;9.420;2023-03-01T14:50:23;1.27;;;1.27;;
20699;SDS011;10511;51.232;9.420;2023-03-01T14:52:52;1.20;;;1.20;;
20699;SDS011;10511;51.232;9.420;2023-03-01T14:55:22;1.10;;;1.10;;
20699;SDS011;10511;51.232;9.420;2023-03-01T14:57:52;1.10;;;1.10;;
20699;SDS011;10511;51.232;9.420;2023-03-01T15:00:21;1.10;;;1.10;;
20699;SDS011;10511;51.232;9.420;2023-03-01T15:02:52;1.00;;;1.00;;
20699;SDS011;10511;51.232;9.420;2023-03-01T15:05:22;1.10;;;1.10;;
20699;SDS011;10511;51.232;9.420;2023-03-01T15:07:53;1.10;;;1.10;;
20699;SDS011;10511;51.232;9.420;2023-03-01T15:10:22;1.10;;;1.10;;
20699;SDS011;10511;51.232;9.420;2023-03-01T15:12:50;1.13;;;1.13;;
20699;SDS011;10511;51.232;9.420;2023-03-01T15:15:33;1.10;;;1.10;;
20699;SDS011;10511;51.232;9.420;2023-03-01T15:18:02;1.10;;;1.10;;
20699;SDS011;10511;51.232;9.420;2023-03-01T15:20:32;1.10;;;1.10;;
20699;SDS011;10511;51.232;9.420;2023-03-01T15:23:01;1.10;;;1.10;;
20699;SDS011;10511;51.232;9.420;2023-03-01T15:25:30;1.10;;;1.10;;
20699;SDS011;10511;51.232;9.420;2023-03-01T15:27:58;1.10;;;1.10;;